createdAt,value
2022-11-26T00:02:29.327Z,2.23
2022-11-26T00:05:00.090Z,2.23
2022-11-26T00:07:31.161Z,2.25
2022-11-26T00:10:00.697Z,2.29
2022-11-26T00:12:33.740Z,2.28
2022-11-26T00:15:29.239Z,2.20
2022-11-26T00:17:58.483Z,2.14
2022-11-26T00:20:31.654Z,2.11
2022-11-26T00:23:02.879Z,2.05
2022-11-26T00:25:43.660Z,2.01
2022-11-26T00:28:26.306Z,1.98
2022-11-26T00:31:15.191Z,1.97
2022-11-26T00:33:43.626Z,1.98
2022-11-26T00:36:18.880Z,2.00
2022-11-26T00:38:51.895Z,1.96
2022-11-26T00:41:26.780Z,1.99
2022-11-26T00:43:55.164Z,2.03
2022-11-26T00:46:23.529Z,2.08
2022-11-26T00:48:52.467Z,2.06
2022-11-26T00:51:25.720Z,2.00
2022-11-26T00:53:56.737Z,2.02
2022-11-26T00:56:25.969Z,2.03
2022-11-26T00:58:54.442Z,2.00
2022-11-26T01:01:26.171Z,1.95
2022-11-26T01:03:55.267Z,1.92
2022-11-26T01:06:26.853Z,1.93
2022-11-26T01:08:55.303Z,1.91
2022-11-26T01:11:24.833Z,1.88
2022-11-26T01:13:54.948Z,1.86
2022-11-26T01:16:31.456Z,1.86
2022-11-26T01:19:01.096Z,1.93
2022-11-26T01:21:31.799Z,1.92
2022-11-26T01:24:03.015Z,1.88
2022-11-26T01:26:38.923Z,1.84
2022-11-26T01:29:07.514Z,1.79
2022-11-26T01:31:36.053Z,1.74
2022-11-26T01:34:04.521Z,1.70
2022-11-26T01:36:38.888Z,1.68
2022-11-26T01:39:15.103Z,1.67
2022-11-26T01:42:10.471Z,1.67
2022-11-26T01:44:39.288Z,1.73
2022-11-26T01:47:28.183Z,1.76
2022-11-26T01:50:34.769Z,1.74
2022-11-26T01:53:10.649Z,1.73
2022-11-26T01:55:51.877Z,1.73
2022-11-26T01:58:26.570Z,1.77
2022-11-26T02:00:55.582Z,1.89
2022-11-26T02:03:25.437Z,2.02
2022-11-26T02:06:03.879Z,2.13
2022-11-26T02:08:34.881Z,2.20
2022-11-26T02:11:16.525Z,2.20
2022-11-26T02:13:47.966Z,2.21
2022-11-26T02:16:33.558Z,2.22
2022-11-26T02:19:17.264Z,2.24
2022-11-26T02:21:57.240Z,2.21
2022-11-26T02:25:00.397Z,2.16
2022-11-26T02:27:46.680Z,2.10
2022-11-26T02:30:17.255Z,2.11
2022-11-26T02:32:51.538Z,2.11
2022-11-26T02:35:36.254Z,2.08
2022-11-26T02:38:15.854Z,2.06
2022-11-26T02:40:44.726Z,2.05
2022-11-26T02:43:15.597Z,2.04
2022-11-26T02:45:49.015Z,1.97
2022-11-26T02:48:24.389Z,1.88
2022-11-26T02:51:01.873Z,1.86
2022-11-26T02:53:32.827Z,1.81
2022-11-26T02:56:09.455Z,1.81
2022-11-26T02:58:38.534Z,1.82
2022-11-26T03:01:13.098Z,1.81
2022-11-26T03:03:47.405Z,1.79
2022-11-26T03:06:18.662Z,1.76
2022-11-26T03:08:47.283Z,1.71
2022-11-26T03:11:15.718Z,1.67
2022-11-26T03:13:44.078Z,1.62
2022-11-26T03:16:12.580Z,1.61
2022-11-26T03:18:41.584Z,1.60
2022-11-26T03:21:10.052Z,1.58
2022-11-26T03:23:38.481Z,1.59
2022-11-26T03:26:07.076Z,1.55
2022-11-26T03:28:35.716Z,1.55
2022-11-26T03:31:04.207Z,1.54
2022-11-26T03:33:32.517Z,1.54
2022-11-26T03:36:00.911Z,1.53
2022-11-26T03:38:29.245Z,1.51
2022-11-26T03:41:03.343Z,1.49
2022-11-26T03:43:31.785Z,1.49
2022-11-26T03:46:00.316Z,1.50
2022-11-26T03:48:28.861Z,1.51
2022-11-26T03:50:57.280Z,1.54
2022-11-26T03:53:25.698Z,1.52
2022-11-26T03:55:53.980Z,1.52
2022-11-26T03:58:22.427Z,1.57
2022-11-26T04:00:50.804Z,1.63
2022-11-26T04:03:19.355Z,1.68
2022-11-26T04:05:47.717Z,1.73
2022-11-26T04:08:16.146Z,1.76
2022-11-26T04:10:44.509Z,1.75
2022-11-26T04:13:12.952Z,1.77
2022-11-26T04:15:42.145Z,1.79
2022-11-26T04:18:10.507Z,1.80
2022-11-26T04:20:37.639Z,1.76
2022-11-26T04:23:04.697Z,1.77
2022-11-26T04:25:33.083Z,1.77
2022-11-26T04:28:00.232Z,1.74
2022-11-26T04:30:30.045Z,1.68
2022-11-26T04:32:58.559Z,1.65
2022-11-26T04:35:26.924Z,1.66
2022-11-26T04:37:55.287Z,1.66
2022-11-26T04:40:23.713Z,1.65
2022-11-26T04:42:52.160Z,1.67
2022-11-26T04:45:20.535Z,1.74
2022-11-26T04:47:48.967Z,1.79
2022-11-26T04:50:17.424Z,1.82
2022-11-26T04:52:48.671Z,1.83
2022-11-26T04:55:18.516Z,1.83
2022-11-26T04:57:49.820Z,1.87
2022-11-26T05:00:19.405Z,1.82
2022-11-26T05:02:47.918Z,1.80
2022-11-26T05:05:16.759Z,1.80
2022-11-26T05:07:45.184Z,1.82
2022-11-26T05:10:13.992Z,1.90
2022-11-26T05:12:42.583Z,2.00
2022-11-26T05:15:11.331Z,2.04
2022-11-26T05:17:39.729Z,2.00
2022-11-26T05:20:08.826Z,1.98
2022-11-26T05:22:37.322Z,2.04
2022-11-26T05:25:06.024Z,2.13
2022-11-26T05:27:34.601Z,2.16
2022-11-26T05:30:04.150Z,2.11
2022-11-26T05:32:32.610Z,2.04
2022-11-26T05:35:01.065Z,2.07
2022-11-26T05:37:29.425Z,2.08
2022-11-26T05:39:57.739Z,2.06
2022-11-26T05:42:26.201Z,2.07
2022-11-26T05:44:54.556Z,2.13
2022-11-26T05:47:23.233Z,2.12
2022-11-26T05:49:51.652Z,2.07
2022-11-26T05:52:20.071Z,2.04
2022-11-26T05:54:49.262Z,2.02
2022-11-26T05:57:18.580Z,1.99
2022-11-26T05:59:49.480Z,2.03
2022-11-26T06:02:18.098Z,1.98
2022-11-26T06:04:46.701Z,1.96
2022-11-26T06:07:15.154Z,2.00
2022-11-26T06:09:43.560Z,2.00
2022-11-26T06:12:12.015Z,2.02
2022-11-26T06:14:43.211Z,2.03
2022-11-26T06:17:12.664Z,2.00
2022-11-26T06:19:41.058Z,1.97
2022-11-26T06:22:09.544Z,1.90
2022-11-26T06:24:38.324Z,1.81
2022-11-26T06:27:06.916Z,1.76
2022-11-26T06:29:35.347Z,1.71
2022-11-26T06:32:03.956Z,1.69
2022-11-26T06:34:32.406Z,1.65
2022-11-26T06:37:00.775Z,1.60
2022-11-26T06:39:29.137Z,1.58
2022-11-26T06:41:57.546Z,1.55
2022-11-26T06:44:25.940Z,1.53
2022-11-26T06:46:54.534Z,1.54
2022-11-26T06:49:22.888Z,1.57
2022-11-26T06:51:51.317Z,1.57
2022-11-26T06:54:19.886Z,1.58
2022-11-26T06:56:48.261Z,1.59
2022-11-26T06:59:16.953Z,1.52
2022-11-26T07:01:45.384Z,1.44
2022-11-26T07:04:14.430Z,1.39
2022-11-26T07:06:44.972Z,1.36
2022-11-26T07:09:14.538Z,1.34
2022-11-26T07:11:43.372Z,1.36
2022-11-26T07:14:11.844Z,1.37
2022-11-26T07:16:40.290Z,1.39
2022-11-26T07:19:13.547Z,1.41
2022-11-26T07:21:42.756Z,1.39
2022-11-26T07:24:11.221Z,1.40
2022-11-26T07:26:39.576Z,1.45
2022-11-26T07:29:08.409Z,1.51
2022-11-26T07:31:37.038Z,1.51
2022-11-26T07:34:05.473Z,1.46
2022-11-26T07:36:33.856Z,1.40
2022-11-26T07:39:03.480Z,1.38
2022-11-26T07:41:31.831Z,1.35
2022-11-26T07:44:00.186Z,1.33
2022-11-26T07:46:28.844Z,1.33
2022-11-26T07:48:57.491Z,1.35
2022-11-26T07:51:30.360Z,1.37
2022-11-26T07:54:03.694Z,1.37
2022-11-26T07:56:32.568Z,1.34
2022-11-26T07:59:01.845Z,1.35
2022-11-26T08:01:31.487Z,1.34
2022-11-26T08:04:01.272Z,1.29
2022-11-26T08:06:30.711Z,1.31
2022-11-26T08:09:00.884Z,1.39
2022-11-26T08:11:32.823Z,1.47
2022-11-26T08:14:07.983Z,1.58
2022-11-26T08:16:36.521Z,1.71
2022-11-26T08:19:08.775Z,1.77
2022-11-26T08:21:38.639Z,1.87
2022-11-26T08:24:08.701Z,1.99
2022-11-26T08:26:43.555Z,2.08
2022-11-26T08:29:14.269Z,2.16
2022-11-26T08:31:46.308Z,2.27
2022-11-26T08:34:16.725Z,2.38
2022-11-26T08:36:46.262Z,2.39
2022-11-26T08:39:17.618Z,2.38
2022-11-26T08:41:51.942Z,2.36
2022-11-26T08:44:22.043Z,2.26
2022-11-26T08:46:50.852Z,2.12
2022-11-26T08:49:19.335Z,2.09
2022-11-26T08:51:47.720Z,2.04
2022-11-26T08:54:16.131Z,2.05
2022-11-26T08:56:44.489Z,2.10
2022-11-26T08:59:12.852Z,2.11
2022-11-26T09:01:41.229Z,2.06
2022-11-26T09:04:09.640Z,1.95
2022-11-26T09:06:38.437Z,1.85
2022-11-26T09:09:13.255Z,1.76
2022-11-26T09:11:56.563Z,1.77
2022-11-26T09:14:29.966Z,1.77
2022-11-26T09:16:58.814Z,1.75
2022-11-26T09:19:28.740Z,1.77
2022-11-26T09:21:58.501Z,1.81
2022-11-26T09:24:27.137Z,1.82
2022-11-26T09:26:55.590Z,1.84
2022-11-26T09:29:24.846Z,1.92
2022-11-26T09:32:23.621Z,2.02
2022-11-26T09:34:41.751Z,2.02
2022-11-26T09:37:10.425Z,2.00
2022-11-26T09:39:38.855Z,2.09
2022-11-26T09:42:13.122Z,2.15
2022-11-26T09:45:08.875Z,2.13
2022-11-26T09:47:41.325Z,2.03
2022-11-26T09:50:32.514Z,1.90
2022-11-26T09:53:09.484Z,1.87
2022-11-26T09:55:42.061Z,1.84
2022-11-26T09:58:27.076Z,1.81
2022-11-26T10:00:59.808Z,1.85
2022-11-26T10:03:34.770Z,1.83
2022-11-26T10:06:08.152Z,1.78
2022-11-26T10:08:48.858Z,1.80
2022-11-26T10:11:33.534Z,1.79
2022-11-26T10:14:47.054Z,1.78
2022-11-26T10:17:17.924Z,1.76
2022-11-26T10:20:08.993Z,1.81
2022-11-26T10:23:12.536Z,1.83
2022-11-26T10:25:51.491Z,1.80
2022-11-26T10:28:28.914Z,1.88
2022-11-26T10:31:07.070Z,1.94
2022-11-26T10:33:44.116Z,1.99
2022-11-26T10:36:23.419Z,2.01
2022-11-26T10:38:53.393Z,1.98
2022-11-26T10:41:23.849Z,1.94
2022-11-26T10:43:52.403Z,1.96
2022-11-26T10:46:38.941Z,2.04
2022-11-26T10:49:27.920Z,2.19
2022-11-26T10:52:03.572Z,2.36
2022-11-26T10:54:35.033Z,2.49
2022-11-26T10:57:24.198Z,2.60
2022-11-26T10:59:54.837Z,2.76
2022-11-26T11:02:30.199Z,2.86
2022-11-26T11:05:04.613Z,2.94
2022-11-26T11:07:37.204Z,3.06
2022-11-26T11:10:08.650Z,3.15
2022-11-26T11:12:41.871Z,3.16
2022-11-26T11:15:28.911Z,3.21
2022-11-26T11:17:59.749Z,3.33
2022-11-26T11:20:36.673Z,3.47
2022-11-26T11:23:07.328Z,3.45
2022-11-26T11:25:38.859Z,3.43
2022-11-26T11:28:12.973Z,3.46
2022-11-26T11:30:42.544Z,3.53
2022-11-26T11:33:18.834Z,3.65
2022-11-26T11:36:29.374Z,3.74
2022-11-26T11:38:59.991Z,3.79
2022-11-26T11:41:29.211Z,3.79
2022-11-26T11:44:02.102Z,3.76
2022-11-26T11:46:59.472Z,3.73
2022-11-26T11:50:03.799Z,3.75
2022-11-26T11:52:44.820Z,3.68
2022-11-26T11:55:31.464Z,3.71
2022-11-26T11:58:33.747Z,3.77
2022-11-26T12:01:11.263Z,3.77
2022-11-26T12:04:00.916Z,3.76
2022-11-26T12:07:01.516Z,3.79
2022-11-26T12:09:32.510Z,3.79
2022-11-26T12:12:27.441Z,3.89
2022-11-26T12:15:00.890Z,4.00
2022-11-26T12:17:54.173Z,3.92
2022-11-26T12:20:22.677Z,3.71
2022-11-26T12:23:22.845Z,3.56
2022-11-26T12:26:00.843Z,3.61
2022-11-26T12:28:34.444Z,3.68
2022-11-26T12:31:47.605Z,3.64
2022-11-26T12:34:41.550Z,3.59
2022-11-26T12:37:32.100Z,3.53
2022-11-26T12:40:15.565Z,3.43
2022-11-26T12:42:48.319Z,3.53
2022-11-26T12:45:59.198Z,3.61
2022-11-26T12:48:50.345Z,3.54
2022-11-26T12:51:58.543Z,3.37
2022-11-26T12:54:37.324Z,3.23
2022-11-26T12:57:19.459Z,3.20
2022-11-26T12:59:58.338Z,3.18
2022-11-26T13:02:33.362Z,3.16
2022-11-26T13:05:02.360Z,3.18
2022-11-26T13:07:42.893Z,3.27
2022-11-26T13:10:45.423Z,3.39
2022-11-26T13:13:22.913Z,3.45
2022-11-26T13:16:14.475Z,3.49
2022-11-26T13:18:48.379Z,3.54
2022-11-26T13:21:24.344Z,3.55
2022-11-26T13:23:53.041Z,3.56
2022-11-26T13:26:24.074Z,3.46
2022-11-26T13:29:26.481Z,3.36
2022-11-26T13:32:43.076Z,3.32
2022-11-26T13:35:20.346Z,3.30
2022-11-26T13:38:20.743Z,3.35
2022-11-26T13:41:23.501Z,3.28
2022-11-26T13:43:54.621Z,3.20
2022-11-26T13:46:34.162Z,3.16
2022-11-26T13:49:17.853Z,3.15
2022-11-26T13:52:09.370Z,3.10
2022-11-26T13:54:44.027Z,3.08
2022-11-26T13:57:17.485Z,3.03
2022-11-26T13:59:52.093Z,2.99
2022-11-26T14:02:37.170Z,2.95
2022-11-26T14:05:13.153Z,2.99
2022-11-26T14:07:43.301Z,2.96
2022-11-26T14:10:42.715Z,2.93
2022-11-26T14:13:12.444Z,3.00
2022-11-26T14:15:43.775Z,2.98
2022-11-26T14:18:13.116Z,2.97
2022-11-26T14:21:00.240Z,2.99
2022-11-26T14:23:52.531Z,3.02
2022-11-26T14:26:37.619Z,3.11
2022-11-26T14:29:09.338Z,3.16
2022-11-26T14:31:51.676Z,3.19
2022-11-26T14:34:27.635Z,3.19
2022-11-26T14:37:01.646Z,3.23
2022-11-26T14:39:31.923Z,3.28
2022-11-26T14:42:06.045Z,3.32
2022-11-26T14:44:35.040Z,3.32
2022-11-26T14:47:17.146Z,3.28
2022-11-26T14:49:54.503Z,3.26
2022-11-26T14:52:44.142Z,3.20
2022-11-26T14:55:28.254Z,3.18
2022-11-26T14:58:09.000Z,3.17
2022-11-26T15:00:38.133Z,3.09
2022-11-26T15:03:24.583Z,3.05
2022-11-26T15:05:53.030Z,2.94
2022-11-26T15:08:25.795Z,2.81
2022-11-26T15:11:08.257Z,2.73
2022-11-26T15:13:43.470Z,2.73
2022-11-26T15:16:32.828Z,2.71
2022-11-26T15:19:03.530Z,2.68
2022-11-26T15:21:33.414Z,2.67
2022-11-26T15:24:07.658Z,2.65
2022-11-26T15:26:37.220Z,2.63
2022-11-26T15:29:33.216Z,2.67
2022-11-26T15:32:02.165Z,2.74
2022-11-26T15:34:32.733Z,2.67
2022-11-26T15:37:01.240Z,2.61
2022-11-26T15:39:31.845Z,2.58
2022-11-26T15:42:05.010Z,2.55
2022-11-26T15:44:41.955Z,2.55
2022-11-26T15:47:19.312Z,2.63
2022-11-26T15:49:53.185Z,2.74
2022-11-26T15:52:26.467Z,2.74
2022-11-26T15:55:12.339Z,2.80
2022-11-26T15:57:42.435Z,2.84
2022-11-26T16:00:25.380Z,2.87
2022-11-26T16:02:54.092Z,2.92
2022-11-26T16:05:30.000Z,2.96
2022-11-26T16:08:05.115Z,2.97
2022-11-26T16:10:39.854Z,2.98
2022-11-26T16:13:19.984Z,3.01
2022-11-26T16:16:12.975Z,3.01
2022-11-26T16:18:44.605Z,2.98
2022-11-26T16:21:22.821Z,2.96
2022-11-26T16:23:54.608Z,2.97
2022-11-26T16:26:23.541Z,2.98
2022-11-26T16:28:51.931Z,2.94
2022-11-26T16:31:22.417Z,2.95
2022-11-26T16:33:50.806Z,2.91
2022-11-26T16:36:20.684Z,2.90
2022-11-26T16:38:49.770Z,2.90
2022-11-26T16:41:21.164Z,2.93
2022-11-26T16:43:50.943Z,2.97
2022-11-26T16:46:24.449Z,2.99
2022-11-26T16:48:53.800Z,2.93
2022-11-26T16:51:24.228Z,2.90
2022-11-26T16:53:52.808Z,2.91
2022-11-26T16:56:38.765Z,2.91
2022-11-26T16:59:25.820Z,2.91
2022-11-26T17:01:55.217Z,2.91
2022-11-26T17:04:24.137Z,2.90
2022-11-26T17:06:52.598Z,2.85
2022-11-26T17:09:21.299Z,2.78
2022-11-26T17:11:50.390Z,2.72
2022-11-26T17:14:19.305Z,2.64
2022-11-26T17:16:47.949Z,2.61
2022-11-26T17:19:17.289Z,2.57
2022-11-26T17:21:45.844Z,2.52
2022-11-26T17:24:17.767Z,2.47
2022-11-26T17:26:53.024Z,2.48
2022-11-26T17:29:21.434Z,2.51
2022-11-26T17:31:50.568Z,2.45
2022-11-26T17:34:19.713Z,2.34
2022-11-26T17:36:49.912Z,2.29
2022-11-26T17:39:19.948Z,2.35
2022-11-26T17:41:48.854Z,2.44
2022-11-26T17:44:17.393Z,2.50
2022-11-26T17:47:15.387Z,2.60
2022-11-26T17:49:36.994Z,2.68
2022-11-26T17:52:06.438Z,2.69
2022-11-26T17:54:36.034Z,2.65
2022-11-26T17:57:04.940Z,2.59
2022-11-26T17:59:35.173Z,2.61
2022-11-26T18:02:03.877Z,2.71
2022-11-26T18:04:34.096Z,2.79
2022-11-26T18:07:13.464Z,2.85
2022-11-26T18:09:42.828Z,2.94
2022-11-26T18:12:25.448Z,2.98
2022-11-26T18:14:58.647Z,2.94
2022-11-26T18:17:28.410Z,2.90
2022-11-26T18:19:57.908Z,2.81
2022-11-26T18:22:28.895Z,2.77
2022-11-26T18:24:58.569Z,2.79
2022-11-26T18:27:31.310Z,2.80
2022-11-26T18:29:59.745Z,2.84
2022-11-26T18:32:29.010Z,2.81
2022-11-26T18:34:57.678Z,2.72
2022-11-26T18:37:27.246Z,2.71
2022-11-26T18:39:56.033Z,2.71
2022-11-26T18:42:36.955Z,2.75
2022-11-26T18:45:11.088Z,2.77
2022-11-26T18:47:43.481Z,2.80
2022-11-26T18:50:14.571Z,2.83
2022-11-26T18:52:43.676Z,2.86
2022-11-26T18:55:15.212Z,2.88
2022-11-26T18:57:44.849Z,2.89
2022-11-26T19:00:15.510Z,2.87
2022-11-26T19:02:45.126Z,2.85
2022-11-26T19:05:23.025Z,2.84
2022-11-26T19:07:53.968Z,2.85
2022-11-26T19:10:23.609Z,2.86
2022-11-26T19:12:53.083Z,2.87
2022-11-26T19:15:22.403Z,2.90
2022-11-26T19:17:52.661Z,2.91
2022-11-26T19:20:22.411Z,2.90
2022-11-26T19:22:57.899Z,2.89
2022-11-26T19:25:28.186Z,2.90
2022-11-26T19:28:03.446Z,2.92
2022-11-26T19:30:34.519Z,2.94
2022-11-26T19:33:04.983Z,2.98
2022-11-26T19:35:34.769Z,2.97
2022-11-26T19:38:04.561Z,2.96
2022-11-26T19:40:33.916Z,2.94
2022-11-26T19:43:06.114Z,2.97
2022-11-26T19:45:36.565Z,2.94
2022-11-26T19:48:06.631Z,2.92
2022-11-26T19:50:37.925Z,2.97
2022-11-26T19:53:08.214Z,3.01
2022-11-26T19:55:38.163Z,3.05
2022-11-26T19:58:08.499Z,3.04
2022-11-26T20:00:38.001Z,2.95
2022-11-26T20:03:08.104Z,2.90
2022-11-26T20:05:38.174Z,2.87
2022-11-26T20:08:09.670Z,2.84
2022-11-26T20:10:39.735Z,2.81
2022-11-26T20:13:12.985Z,2.69
2022-11-26T20:15:48.202Z,2.58
2022-11-26T20:18:17.929Z,2.50
2022-11-26T20:20:59.463Z,2.45
2022-11-26T20:23:29.669Z,2.47
2022-11-26T20:26:04.217Z,2.45
2022-11-26T20:28:34.243Z,2.44
2022-11-26T20:31:06.269Z,2.40
2022-11-26T20:33:36.626Z,2.38
2022-11-26T20:36:12.875Z,2.35
2022-11-26T20:38:43.074Z,2.34
2022-11-26T20:41:17.192Z,2.33
2022-11-26T20:43:52.474Z,2.30
2022-11-26T20:46:29.100Z,2.33
2022-11-26T20:48:58.990Z,2.44
2022-11-26T20:51:28.282Z,2.54
2022-11-26T20:54:02.370Z,2.63
2022-11-26T20:56:32.008Z,2.64
2022-11-26T20:59:02.203Z,2.61
2022-11-26T21:01:32.951Z,2.64
2022-11-26T21:04:03.198Z,2.69
2022-11-26T21:06:32.240Z,2.72
2022-11-26T21:09:03.781Z,2.70
2022-11-26T21:11:32.848Z,2.74
2022-11-26T21:14:02.175Z,2.82
2022-11-26T21:16:31.370Z,2.89
2022-11-26T21:19:01.547Z,2.91
2022-11-26T21:21:30.952Z,2.95
2022-11-26T21:23:59.482Z,2.96
2022-11-26T21:26:29.089Z,3.00
2022-11-26T21:28:59.407Z,3.02
2022-11-26T21:31:30.099Z,3.05
2022-11-26T21:34:01.060Z,3.07
2022-11-26T21:36:31.304Z,3.03
2022-11-26T21:39:00.980Z,3.02
2022-11-26T21:41:33.922Z,3.03
2022-11-26T21:44:04.375Z,3.03
2022-11-26T21:46:39.079Z,3.04
2022-11-26T21:49:08.839Z,3.07
2022-11-26T21:51:38.175Z,3.07
2022-11-26T21:54:06.779Z,3.02
2022-11-26T21:56:35.386Z,3.00
2022-11-26T21:59:04.092Z,2.98
2022-11-26T22:01:35.539Z,3.00
2022-11-26T22:04:10.135Z,3.03
2022-11-26T22:06:39.018Z,3.03
2022-11-26T22:09:08.430Z,3.03
2022-11-26T22:11:40.133Z,3.05
2022-11-26T22:14:10.872Z,3.10
2022-11-26T22:16:39.377Z,3.15
2022-11-26T22:19:08.646Z,3.15
2022-11-26T22:21:40.224Z,3.15
2022-11-26T22:24:15.975Z,3.16
2022-11-26T22:26:45.046Z,3.16
2022-11-26T22:29:17.682Z,3.21
2022-11-26T22:31:48.531Z,3.26
2022-11-26T22:34:19.055Z,3.30
2022-11-26T22:36:48.129Z,3.30
2022-11-26T22:39:18.136Z,3.29
2022-11-26T22:41:48.174Z,3.27
2022-11-26T22:44:17.789Z,3.29
2022-11-26T22:46:46.437Z,3.34
2022-11-26T22:49:16.707Z,3.38
2022-11-26T22:51:45.507Z,3.42
2022-11-26T22:54:15.894Z,3.42
2022-11-26T22:56:44.314Z,3.39
2022-11-26T22:59:14.713Z,3.27
2022-11-26T23:01:43.338Z,3.14
2022-11-26T23:04:12.651Z,3.04
2022-11-26T23:06:41.015Z,3.05
2022-11-26T23:09:10.336Z,3.14
2022-11-26T23:11:41.395Z,3.18
2022-11-26T23:14:12.347Z,3.15
2022-11-26T23:16:42.677Z,3.10
2022-11-26T23:19:14.657Z,3.09
2022-11-26T23:21:45.101Z,3.14
2022-11-26T23:24:15.802Z,3.19
2022-11-26T23:26:44.278Z,3.23
2022-11-26T23:29:13.423Z,3.24
2022-11-26T23:31:44.050Z,3.23
2022-11-26T23:34:13.293Z,3.25
2022-11-26T23:36:41.729Z,3.27
2022-11-26T23:39:12.503Z,3.29
2022-11-26T23:41:41.139Z,3.32
2022-11-26T23:44:09.587Z,3.35
2022-11-26T23:47:16.816Z,3.40
2022-11-26T23:49:45.226Z,3.43
2022-11-26T23:52:13.599Z,3.44
2022-11-26T23:54:41.892Z,3.43
2022-11-26T23:57:14.850Z,3.39
2022-11-26T23:59:43.575Z,3.43
